Terminal Aerodrome Forecast
Issued by NWS

Home | Current Version | Previous Version | Text Only | Print | Product List | Glossary On
Versions: 1 2 3 4 5 6 7 8 9 10 11 12 13 14
827
FTUS43 KSGF 210246 AAA
TAFBBG
TAF AMD
KBBG 210246Z 2103/2124 14012G17KT P6SM BKN250 WS020/16030KT
     FM211400 17015G22KT P6SM BKN035=

USA.gov is the U.S. government's official web portal to all federal, state and local government web resources and services.